sensor_id;sensor_type;location;lat;lon;timestamp;P1;durP1;ratioP1;P2;durP2;ratioP2
50393;SDS011;36308;46.312;25.288;2022-07-29T00:02:09;6.28;;;5.03;;
50393;SDS011;36308;46.312;25.288;2022-07-29T00:04:46;6.10;;;5.20;;
50393;SDS011;36308;46.312;25.288;2022-07-29T00:07:12;5.90;;;5.30;;
50393;SDS011;36308;46.312;25.288;2022-07-29T00:09:37;6.72;;;5.38;;
50393;SDS011;36308;46.312;25.288;2022-07-29T00:12:03;7.30;;;5.43;;
50393;SDS011;36308;46.312;25.288;2022-07-29T00:14:29;6.82;;;5.50;;
50393;SDS011;36308;46.312;25.288;2022-07-29T00:16:54;7.30;;;5.15;;
50393;SDS011;36308;46.312;25.288;2022-07-29T00:19:20;6.47;;;5.45;;
50393;SDS011;36308;46.312;25.288;2022-07-29T00:21:45;7.03;;;5.40;;
50393;SDS011;36308;46.312;25.288;2022-07-29T00:24:10;6.78;;;5.70;;
50393;SDS011;36308;46.312;25.288;2022-07-29T00:26:36;7.95;;;5.85;;
50393;SDS011;36308;46.312;25.288;2022-07-29T00:29:03;6.78;;;5.40;;
50393;SDS011;36308;46.312;25.288;2022-07-29T00:31:29;8.10;;;5.60;;
50393;SDS011;36308;46.312;25.288;2022-07-29T00:33:55;6.57;;;5.82;;
50393;SDS011;36308;46.312;25.288;2022-07-29T00:36:21;6.53;;;5.75;;
50393;SDS011;36308;46.312;25.288;2022-07-29T00:38:47;6.28;;;5.68;;
50393;SDS011;36308;46.312;25.288;2022-07-29T00:41:13;6.70;;;5.95;;
50393;SDS011;36308;46.312;25.288;2022-07-29T00:43:39;8.15;;;5.78;;
50393;SDS011;36308;46.312;25.288;2022-07-29T00:46:05;7.95;;;6.32;;
50393;SDS011;36308;46.312;25.288;2022-07-29T00:48:31;6.97;;;6.13;;
50393;SDS011;36308;46.312;25.288;2022-07-29T00:51:00;7.25;;;6.30;;
50393;SDS011;36308;46.312;25.288;2022-07-29T00:53:27;7.15;;;6.20;;
50393;SDS011;36308;46.312;25.288;2022-07-29T00:55:53;9.65;;;5.85;;
50393;SDS011;36308;46.312;25.288;2022-07-29T00:58:19;7.10;;;6.20;;
50393;SDS011;36308;46.312;25.288;2022-07-29T01:00:45;7.93;;;5.97;;
50393;SDS011;36308;46.312;25.288;2022-07-29T01:03:11;6.18;;;5.28;;
50393;SDS011;36308;46.312;25.288;2022-07-29T01:05:36;6.95;;;5.93;;
50393;SDS011;36308;46.312;25.288;2022-07-29T01:08:03;7.47;;;6.15;;
50393;SDS011;36308;46.312;25.288;2022-07-29T01:10:29;6.25;;;5.65;;
50393;SDS011;36308;46.312;25.288;2022-07-29T01:12:56;7.25;;;5.63;;
50393;SDS011;36308;46.312;25.288;2022-07-29T01:15:24;6.75;;;5.50;;
50393;SDS011;36308;46.312;25.288;2022-07-29T01:17:52;9.98;;;6.32;;
50393;SDS011;36308;46.312;25.288;2022-07-29T01:25:48;9.07;;;5.95;;
50393;SDS011;36308;46.312;25.288;2022-07-29T01:31:04;9.55;;;6.07;;
50393;SDS011;36308;46.312;25.288;2022-07-29T01:33:33;7.55;;;6.03;;
50393;SDS011;36308;46.312;25.288;2022-07-29T01:36:18;6.45;;;5.75;;
50393;SDS011;36308;46.312;25.288;2022-07-29T01:44:54;7.53;;;6.30;;
50393;SDS011;36308;46.312;25.288;2022-07-29T01:47:23;7.00;;;6.07;;
50393;SDS011;36308;46.312;25.288;2022-07-29T01:49:56;7.15;;;6.20;;
50393;SDS011;36308;46.312;25.288;2022-07-29T01:52:31;9.43;;;6.57;;
50393;SDS011;36308;46.312;25.288;2022-07-29T01:55:02;7.50;;;6.60;;
50393;SDS011;36308;46.312;25.288;2022-07-29T01:57:33;7.22;;;6.28;;
50393;SDS011;36308;46.312;25.288;2022-07-29T02:00:01;8.85;;;6.38;;
50393;SDS011;36308;46.312;25.288;2022-07-29T02:02:29;9.13;;;6.18;;
50393;SDS011;36308;46.312;25.288;2022-07-29T02:04:56;8.10;;;6.25;;
50393;SDS011;36308;46.312;25.288;2022-07-29T02:07:25;7.18;;;6.10;;
50393;SDS011;36308;46.312;25.288;2022-07-29T02:09:54;7.95;;;6.22;;
50393;SDS011;36308;46.312;25.288;2022-07-29T02:12:21;7.53;;;5.78;;
50393;SDS011;36308;46.312;25.288;2022-07-29T02:14:50;7.18;;;5.80;;
50393;SDS011;36308;46.312;25.288;2022-07-29T02:17:27;7.60;;;6.35;;
50393;SDS011;36308;46.312;25.288;2022-07-29T02:19:59;6.43;;;5.72;;
50393;SDS011;36308;46.312;25.288;2022-07-29T02:22:26;7.43;;;6.18;;
50393;SDS011;36308;46.312;25.288;2022-07-29T02:24:55;8.68;;;6.63;;
50393;SDS011;36308;46.312;25.288;2022-07-29T02:27:21;8.05;;;6.45;;
50393;SDS011;36308;46.312;25.288;2022-07-29T02:29:48;8.18;;;6.00;;
50393;SDS011;36308;46.312;25.288;2022-07-29T02:32:16;8.10;;;6.00;;
50393;SDS011;36308;46.312;25.288;2022-07-29T02:34:42;6.47;;;5.65;;
50393;SDS011;36308;46.312;25.288;2022-07-29T02:37:09;7.43;;;5.57;;
50393;SDS011;36308;46.312;25.288;2022-07-29T02:39:37;8.70;;;6.45;;
50393;SDS011;36308;46.312;25.288;2022-07-29T02:42:07;7.43;;;6.35;;
50393;SDS011;36308;46.312;25.288;2022-07-29T02:44:35;8.30;;;6.57;;
50393;SDS011;36308;46.312;25.288;2022-07-29T02:47:13;9.25;;;6.75;;
50393;SDS011;36308;46.312;25.288;2022-07-29T02:49:54;7.00;;;6.30;;
50393;SDS011;36308;46.312;25.288;2022-07-29T03:03:48;8.55;;;6.63;;
50393;SDS011;36308;46.312;25.288;2022-07-29T03:06:16;8.55;;;7.03;;
50393;SDS011;36308;46.312;25.288;2022-07-29T03:08:43;9.13;;;6.97;;
50393;SDS011;36308;46.312;25.288;2022-07-29T03:11:10;8.35;;;7.43;;
50393;SDS011;36308;46.312;25.288;2022-07-29T03:13:38;9.25;;;6.68;;
50393;SDS011;36308;46.312;25.288;2022-07-29T03:16:04;9.68;;;8.23;;
50393;SDS011;36308;46.312;25.288;2022-07-29T03:18:31;17.65;;;12.85;;
50393;SDS011;36308;46.312;25.288;2022-07-29T03:20:57;16.48;;;13.27;;
50393;SDS011;36308;46.312;25.288;2022-07-29T03:23:23;17.88;;;12.70;;
50393;SDS011;36308;46.312;25.288;2022-07-29T03:25:51;18.80;;;12.65;;
50393;SDS011;36308;46.312;25.288;2022-07-29T03:28:16;15.90;;;11.68;;
50393;SDS011;36308;46.312;25.288;2022-07-29T03:30:42;12.05;;;10.13;;
50393;SDS011;36308;46.312;25.288;2022-07-29T03:33:07;11.05;;;9.50;;
50393;SDS011;36308;46.312;25.288;2022-07-29T03:35:33;12.10;;;9.10;;
50393;SDS011;36308;46.312;25.288;2022-07-29T03:37:59;10.70;;;9.60;;
50393;SDS011;36308;46.312;25.288;2022-07-29T03:40:25;15.02;;;9.80;;
50393;SDS011;36308;46.312;25.288;2022-07-29T03:42:56;10.32;;;7.75;;
50393;SDS011;36308;46.312;25.288;2022-07-29T03:45:24;10.90;;;7.63;;
50393;SDS011;36308;46.312;25.288;2022-07-29T03:47:53;9.55;;;7.53;;
50393;SDS011;36308;46.312;25.288;2022-07-29T03:50:23;8.85;;;7.03;;
50393;SDS011;36308;46.312;25.288;2022-07-29T03:52:49;9.70;;;6.78;;
50393;SDS011;36308;46.312;25.288;2022-07-29T03:55:15;9.13;;;7.50;;
50393;SDS011;36308;46.312;25.288;2022-07-29T03:57:41;12.50;;;8.48;;
50393;SDS011;36308;46.312;25.288;2022-07-29T04:00:07;9.82;;;7.05;;
50393;SDS011;36308;46.312;25.288;2022-07-29T04:02:33;9.20;;;6.93;;
50393;SDS011;36308;46.312;25.288;2022-07-29T04:05:00;10.13;;;7.03;;
50393;SDS011;36308;46.312;25.288;2022-07-29T04:07:25;10.05;;;6.90;;
50393;SDS011;36308;46.312;25.288;2022-07-29T04:09:51;7.45;;;6.20;;
50393;SDS011;36308;46.312;25.288;2022-07-29T04:12:16;8.68;;;6.60;;
50393;SDS011;36308;46.312;25.288;2022-07-29T04:14:56;10.63;;;8.35;;
50393;SDS011;36308;46.312;25.288;2022-07-29T04:17:21;8.80;;;7.90;;
50393;SDS011;36308;46.312;25.288;2022-07-29T04:19:47;9.77;;;8.35;;
50393;SDS011;36308;46.312;25.288;2022-07-29T04:22:12;8.50;;;7.40;;
50393;SDS011;36308;46.312;25.288;2022-07-29T04:24:38;11.40;;;7.68;;
50393;SDS011;36308;46.312;25.288;2022-07-29T04:27:03;13.23;;;7.75;;
50393;SDS011;36308;46.312;25.288;2022-07-29T04:29:28;11.98;;;7.63;;
50393;SDS011;36308;46.312;25.288;2022-07-29T04:31:54;13.95;;;8.30;;
50393;SDS011;36308;46.312;25.288;2022-07-29T04:34:19;11.63;;;7.32;;
50393;SDS011;36308;46.312;25.288;2022-07-29T04:36:45;10.73;;;7.10;;
50393;SDS011;36308;46.312;25.288;2022-07-29T04:39:10;12.90;;;7.80;;
50393;SDS011;36308;46.312;25.288;2022-07-29T04:41:35;10.98;;;7.60;;
50393;SDS011;36308;46.312;25.288;2022-07-29T04:44:02;10.27;;;7.55;;
50393;SDS011;36308;46.312;25.288;2022-07-29T04:46:30;13.07;;;6.57;;
50393;SDS011;36308;46.312;25.288;2022-07-29T04:48:55;11.10;;;7.10;;
50393;SDS011;36308;46.312;25.288;2022-07-29T04:51:20;12.38;;;6.43;;
50393;SDS011;36308;46.312;25.288;2022-07-29T04:53:46;10.48;;;6.65;;
50393;SDS011;36308;46.312;25.288;2022-07-29T04:56:11;10.00;;;6.90;;
50393;SDS011;36308;46.312;25.288;2022-07-29T04:58:37;9.30;;;6.05;;
50393;SDS011;36308;46.312;25.288;2022-07-29T05:01:03;15.25;;;6.72;;
50393;SDS011;36308;46.312;25.288;2022-07-29T05:03:28;7.47;;;5.97;;
50393;SDS011;36308;46.312;25.288;2022-07-29T05:05:54;8.55;;;5.95;;
50393;SDS011;36308;46.312;25.288;2022-07-29T05:08:19;11.65;;;6.70;;
50393;SDS011;36308;46.312;25.288;2022-07-29T05:10:45;11.15;;;6.90;;
50393;SDS011;36308;46.312;25.288;2022-07-29T05:13:11;12.20;;;6.10;;
50393;SDS011;36308;46.312;25.288;2022-07-29T05:15:36;9.93;;;6.85;;
50393;SDS011;36308;46.312;25.288;2022-07-29T05:18:02;11.50;;;6.18;;
50393;SDS011;36308;46.312;25.288;2022-07-29T05:20:28;10.82;;;6.45;;
50393;SDS011;36308;46.312;25.288;2022-07-29T05:22:55;10.13;;;6.32;;
50393;SDS011;36308;46.312;25.288;2022-07-29T05:25:22;12.05;;;6.50;;
50393;SDS011;36308;46.312;25.288;2022-07-29T05:27:48;12.43;;;6.60;;
50393;SDS011;36308;46.312;25.288;2022-07-29T05:30:13;9.00;;;6.40;;
50393;SDS011;36308;46.312;25.288;2022-07-29T05:32:39;11.63;;;6.60;;
50393;SDS011;36308;46.312;25.288;2022-07-29T05:35:04;8.32;;;6.55;;
50393;SDS011;36308;46.312;25.288;2022-07-29T05:37:30;9.98;;;6.70;;
50393;SDS011;36308;46.312;25.288;2022-07-29T05:39:56;10.85;;;6.70;;
50393;SDS011;36308;46.312;25.288;2022-07-29T05:42:21;8.50;;;6.20;;
50393;SDS011;36308;46.312;25.288;2022-07-29T05:44:47;10.55;;;6.90;;
50393;SDS011;36308;46.312;25.288;2022-07-29T05:47:12;9.68;;;5.47;;
50393;SDS011;36308;46.312;25.288;2022-07-29T05:49:38;13.55;;;7.07;;
50393;SDS011;36308;46.312;25.288;2022-07-29T05:52:04;7.45;;;5.63;;
50393;SDS011;36308;46.312;25.288;2022-07-29T05:54:29;13.23;;;6.75;;
50393;SDS011;36308;46.312;25.288;2022-07-29T05:56:55;8.50;;;5.60;;
50393;SDS011;36308;46.312;25.288;2022-07-29T05:59:21;10.38;;;5.97;;
50393;SDS011;36308;46.312;25.288;2022-07-29T06:01:46;10.52;;;5.90;;
50393;SDS011;36308;46.312;25.288;2022-07-29T06:06:58;10.55;;;5.60;;
50393;SDS011;36308;46.312;25.288;2022-07-29T06:09:24;9.15;;;5.97;;
50393;SDS011;36308;46.312;25.288;2022-07-29T06:11:49;13.35;;;6.22;;
50393;SDS011;36308;46.312;25.288;2022-07-29T06:14:14;9.43;;;6.25;;
50393;SDS011;36308;46.312;25.288;2022-07-29T06:16:40;31.70;;;8.13;;
50393;SDS011;36308;46.312;25.288;2022-07-29T06:19:06;15.27;;;6.00;;
50393;SDS011;36308;46.312;25.288;2022-07-29T06:21:32;9.00;;;5.88;;
50393;SDS011;36308;46.312;25.288;2022-07-29T06:23:58;10.10;;;6.05;;
50393;SDS011;36308;46.312;25.288;2022-07-29T06:26:24;8.05;;;5.97;;
50393;SDS011;36308;46.312;25.288;2022-07-29T06:28:49;6.85;;;5.35;;
50393;SDS011;36308;46.312;25.288;2022-07-29T06:31:14;7.90;;;5.70;;
50393;SDS011;36308;46.312;25.288;2022-07-29T06:33:40;9.13;;;5.88;;
50393;SDS011;36308;46.312;25.288;2022-07-29T06:36:05;8.20;;;5.80;;
50393;SDS011;36308;46.312;25.288;2022-07-29T06:38:32;7.93;;;6.28;;
50393;SDS011;36308;46.312;25.288;2022-07-29T06:40:58;7.50;;;6.32;;
50393;SDS011;36308;46.312;25.288;2022-07-29T06:43:28;8.98;;;6.05;;
50393;SDS011;36308;46.312;25.288;2022-07-29T06:46:02;11.23;;;6.30;;
50393;SDS011;36308;46.312;25.288;2022-07-29T06:48:32;6.82;;;5.80;;
50393;SDS011;36308;46.312;25.288;2022-07-29T06:50:58;12.13;;;6.50;;
50393;SDS011;36308;46.312;25.288;2022-07-29T06:53:24;6.93;;;6.15;;
50393;SDS011;36308;46.312;25.288;2022-07-29T06:55:50;7.57;;;5.70;;
50393;SDS011;36308;46.312;25.288;2022-07-29T06:58:16;10.82;;;6.28;;
50393;SDS011;36308;46.312;25.288;2022-07-29T07:00:43;11.77;;;7.43;;
50393;SDS011;36308;46.312;25.288;2022-07-29T07:03:10;7.90;;;5.78;;
50393;SDS011;36308;46.312;25.288;2022-07-29T07:05:36;9.18;;;5.75;;
50393;SDS011;36308;46.312;25.288;2022-07-29T07:08:01;6.88;;;5.38;;
50393;SDS011;36308;46.312;25.288;2022-07-29T07:10:27;9.38;;;5.72;;
50393;SDS011;36308;46.312;25.288;2022-07-29T07:12:53;6.38;;;5.38;;
50393;SDS011;36308;46.312;25.288;2022-07-29T07:15:18;8.88;;;5.78;;
50393;SDS011;36308;46.312;25.288;2022-07-29T07:17:47;7.25;;;5.25;;
50393;SDS011;36308;46.312;25.288;2022-07-29T07:20:14;7.13;;;5.60;;
50393;SDS011;36308;46.312;25.288;2022-07-29T07:22:40;5.95;;;5.35;;
50393;SDS011;36308;46.312;25.288;2022-07-29T07:25:05;6.60;;;5.88;;
50393;SDS011;36308;46.312;25.288;2022-07-29T07:27:32;8.35;;;5.60;;
50393;SDS011;36308;46.312;25.288;2022-07-29T07:29:57;7.93;;;5.75;;
50393;SDS011;36308;46.312;25.288;2022-07-29T07:32:23;11.20;;;5.15;;
50393;SDS011;36308;46.312;25.288;2022-07-29T07:34:48;8.63;;;5.30;;
50393;SDS011;36308;46.312;25.288;2022-07-29T07:37:14;7.60;;;5.90;;
50393;SDS011;36308;46.312;25.288;2022-07-29T07:39:40;9.43;;;5.60;;
50393;SDS011;36308;46.312;25.288;2022-07-29T07:42:06;7.68;;;5.43;;
50393;SDS011;36308;46.312;25.288;2022-07-29T07:44:31;6.45;;;5.60;;
50393;SDS011;36308;46.312;25.288;2022-07-29T07:46:57;6.00;;;5.20;;
50393;SDS011;36308;46.312;25.288;2022-07-29T07:49:23;5.80;;;5.20;;
50393;SDS011;36308;46.312;25.288;2022-07-29T07:51:48;8.93;;;6.03;;
50393;SDS011;36308;46.312;25.288;2022-07-29T07:54:14;7.15;;;5.28;;
50393;SDS011;36308;46.312;25.288;2022-07-29T07:56:39;8.27;;;5.63;;
50393;SDS011;36308;46.312;25.288;2022-07-29T07:59:05;11.75;;;5.60;;
50393;SDS011;36308;46.312;25.288;2022-07-29T08:01:30;8.10;;;5.28;;
50393;SDS011;36308;46.312;25.288;2022-07-29T08:03:56;7.32;;;5.43;;
50393;SDS011;36308;46.312;25.288;2022-07-29T08:06:21;6.55;;;5.70;;
50393;SDS011;36308;46.312;25.288;2022-07-29T08:08:46;6.47;;;5.38;;
50393;SDS011;36308;46.312;25.288;2022-07-29T08:11:12;8.05;;;5.90;;
50393;SDS011;36308;46.312;25.288;2022-07-29T08:13:38;10.93;;;5.78;;
50393;SDS011;36308;46.312;25.288;2022-07-29T08:16:04;8.55;;;6.80;;
50393;SDS011;36308;46.312;25.288;2022-07-29T08:18:37;9.48;;;5.13;;
50393;SDS011;36308;46.312;25.288;2022-07-29T08:21:03;7.28;;;5.50;;
50393;SDS011;36308;46.312;25.288;2022-07-29T08:23:29;6.53;;;5.35;;
50393;SDS011;36308;46.312;25.288;2022-07-29T08:26:04;5.80;;;5.20;;
50393;SDS011;36308;46.312;25.288;2022-07-29T08:28:31;6.53;;;5.50;;
50393;SDS011;36308;46.312;25.288;2022-07-29T08:30:56;8.73;;;5.60;;
50393;SDS011;36308;46.312;25.288;2022-07-29T08:33:21;9.55;;;5.78;;
50393;SDS011;36308;46.312;25.288;2022-07-29T08:35:47;7.50;;;5.95;;
50393;SDS011;36308;46.312;25.288;2022-07-29T08:38:13;6.82;;;5.72;;
50393;SDS011;36308;46.312;25.288;2022-07-29T08:40:39;7.38;;;5.28;;
50393;SDS011;36308;46.312;25.288;2022-07-29T08:43:05;8.98;;;5.88;;
50393;SDS011;36308;46.312;25.288;2022-07-29T08:45:35;8.50;;;5.55;;
50393;SDS011;36308;46.312;25.288;2022-07-29T08:48:08;6.00;;;5.40;;
50393;SDS011;36308;46.312;25.288;2022-07-29T08:50:35;6.03;;;5.43;;
50393;SDS011;36308;46.312;25.288;2022-07-29T08:53:01;9.13;;;5.10;;
50393;SDS011;36308;46.312;25.288;2022-07-29T08:55:28;7.90;;;5.90;;
50393;SDS011;36308;46.312;25.288;2022-07-29T08:57:53;7.18;;;5.72;;
50393;SDS011;36308;46.312;25.288;2022-07-29T09:00:20;7.57;;;5.78;;
50393;SDS011;36308;46.312;25.288;2022-07-29T09:02:47;6.28;;;5.68;;
50393;SDS011;36308;46.312;25.288;2022-07-29T09:05:20;8.32;;;5.72;;
50393;SDS011;36308;46.312;25.288;2022-07-29T09:07:48;7.32;;;5.93;;
50393;SDS011;36308;46.312;25.288;2022-07-29T09:10:15;5.85;;;5.25;;
50393;SDS011;36308;46.312;25.288;2022-07-29T09:12:40;7.38;;;5.78;;
50393;SDS011;36308;46.312;25.288;2022-07-29T09:15:06;8.15;;;5.78;;
50393;SDS011;36308;46.312;25.288;2022-07-29T09:17:42;7.00;;;6.30;;
50393;SDS011;36308;46.312;25.288;2022-07-29T09:20:10;6.78;;;5.40;;
50393;SDS011;36308;46.312;25.288;2022-07-29T09:22:40;8.00;;;5.80;;
50393;SDS011;36308;46.312;25.288;2022-07-29T09:25:06;7.07;;;5.82;;
50393;SDS011;36308;46.312;25.288;2022-07-29T09:27:32;7.28;;;5.47;;
50393;SDS011;36308;46.312;25.288;2022-07-29T09:30:03;7.00;;;5.70;;
50393;SDS011;36308;46.312;25.288;2022-07-29T09:32:35;7.18;;;5.72;;
50393;SDS011;36308;46.312;25.288;2022-07-29T09:35:26;11.30;;;6.82;;
50393;SDS011;36308;46.312;25.288;2022-07-29T09:37:52;8.63;;;6.30;;
50393;SDS011;36308;46.312;25.288;2022-07-29T09:42:46;7.90;;;5.53;;
50393;SDS011;36308;46.312;25.288;2022-07-29T09:45:12;11.50;;;5.72;;
50393;SDS011;36308;46.312;25.288;2022-07-29T09:47:50;11.02;;;5.63;;
50393;SDS011;36308;46.312;25.288;2022-07-29T09:50:16;8.43;;;6.10;;
50393;SDS011;36308;46.312;25.288;2022-07-29T09:52:48;7.10;;;5.90;;
50393;SDS011;36308;46.312;25.288;2022-07-29T09:55:15;6.22;;;5.63;;
50393;SDS011;36308;46.312;25.288;2022-07-29T09:57:41;7.45;;;5.80;;
50393;SDS011;36308;46.312;25.288;2022-07-29T10:00:14;9.13;;;5.53;;
50393;SDS011;36308;46.312;25.288;2022-07-29T10:02:42;10.77;;;5.57;;
50393;SDS011;36308;46.312;25.288;2022-07-29T10:05:19;6.80;;;6.10;;
50393;SDS011;36308;46.312;25.288;2022-07-29T10:07:50;7.75;;;5.75;;
50393;SDS011;36308;46.312;25.288;2022-07-29T10:12:53;6.55;;;5.30;;
50393;SDS011;36308;46.312;25.288;2022-07-29T10:15:21;7.95;;;5.63;;
50393;SDS011;36308;46.312;25.288;2022-07-29T10:17:48;6.03;;;5.30;;
50393;SDS011;36308;46.312;25.288;2022-07-29T10:20:15;10.02;;;6.10;;
50393;SDS011;36308;46.312;25.288;2022-07-29T10:22:42;6.30;;;5.55;;
50393;SDS011;36308;46.312;25.288;2022-07-29T10:25:09;6.88;;;5.40;;
50393;SDS011;36308;46.312;25.288;2022-07-29T10:27:35;6.40;;;5.35;;
50393;SDS011;36308;46.312;25.288;2022-07-29T10:30:02;5.55;;;5.00;;
50393;SDS011;36308;46.312;25.288;2022-07-29T10:38:21;6.57;;;5.90;;
50393;SDS011;36308;46.312;25.288;2022-07-29T10:46:26;5.72;;;5.13;;
50393;SDS011;36308;46.312;25.288;2022-07-29T10:51:56;6.40;;;5.53;;
50393;SDS011;36308;46.312;25.288;2022-07-29T10:57:20;7.20;;;5.47;;
50393;SDS011;36308;46.312;25.288;2022-07-29T10:59:47;8.15;;;6.22;;
50393;SDS011;36308;46.312;25.288;2022-07-29T11:07:23;6.07;;;5.45;;
50393;SDS011;36308;46.312;25.288;2022-07-29T11:15:06;7.93;;;5.57;;
50393;SDS011;36308;46.312;25.288;2022-07-29T11:20:41;12.40;;;6.80;;
50393;SDS011;36308;46.312;25.288;2022-07-29T11:25:42;10.57;;;6.53;;
50393;SDS011;36308;46.312;25.288;2022-07-29T11:28:15;9.18;;;7.03;;
50393;SDS011;36308;46.312;25.288;2022-07-29T11:30:48;9.30;;;7.00;;
50393;SDS011;36308;46.312;25.288;2022-07-29T11:33:30;12.85;;;7.72;;
50393;SDS011;36308;46.312;25.288;2022-07-29T11:36:10;9.93;;;7.05;;
50393;SDS011;36308;46.312;25.288;2022-07-29T11:38:37;7.15;;;6.45;;
50393;SDS011;36308;46.312;25.288;2022-07-29T11:43:48;7.25;;;6.50;;
50393;SDS011;36308;46.312;25.288;2022-07-29T11:46:16;7.35;;;6.53;;
50393;SDS011;36308;46.312;25.288;2022-07-29T11:49:03;8.85;;;6.68;;
50393;SDS011;36308;46.312;25.288;2022-07-29T11:51:29;10.65;;;7.28;;
50393;SDS011;36308;46.312;25.288;2022-07-29T11:54:02;8.77;;;7.32;;
50393;SDS011;36308;46.312;25.288;2022-07-29T11:56:30;10.98;;;7.72;;
50393;SDS011;36308;46.312;25.288;2022-07-29T11:59:14;12.73;;;8.68;;
50393;SDS011;36308;46.312;25.288;2022-07-29T12:01:51;12.25;;;8.80;;
50393;SDS011;36308;46.312;25.288;2022-07-29T12:04:17;15.27;;;8.60;;
50393;SDS011;36308;46.312;25.288;2022-07-29T12:06:42;9.07;;;6.72;;
50393;SDS011;36308;46.312;25.288;2022-07-29T12:09:08;11.88;;;7.28;;
50393;SDS011;36308;46.312;25.288;2022-07-29T12:11:34;7.25;;;6.22;;
50393;SDS011;36308;46.312;25.288;2022-07-29T12:14:00;9.60;;;6.55;;
50393;SDS011;36308;46.312;25.288;2022-07-29T12:16:36;9.02;;;5.00;;
50393;SDS011;36308;46.312;25.288;2022-07-29T12:19:03;5.90;;;4.85;;
50393;SDS011;36308;46.312;25.288;2022-07-29T12:21:35;6.40;;;3.53;;
50393;SDS011;36308;46.312;25.288;2022-07-29T12:24:09;6.47;;;4.20;;
50393;SDS011;36308;46.312;25.288;2022-07-29T12:26:34;7.88;;;4.75;;
50393;SDS011;36308;46.312;25.288;2022-07-29T12:29:00;8.00;;;4.65;;
50393;SDS011;36308;46.312;25.288;2022-07-29T12:31:26;10.38;;;5.03;;
50393;SDS011;36308;46.312;25.288;2022-07-29T12:33:52;9.52;;;5.38;;
50393;SDS011;36308;46.312;25.288;2022-07-29T12:36:18;7.97;;;5.70;;
50393;SDS011;36308;46.312;25.288;2022-07-29T12:38:44;7.55;;;5.15;;
50393;SDS011;36308;46.312;25.288;2022-07-29T12:41:10;4.95;;;3.75;;
50393;SDS011;36308;46.312;25.288;2022-07-29T12:43:36;6.50;;;4.50;;
50393;SDS011;36308;46.312;25.288;2022-07-29T12:46:11;5.95;;;4.57;;
50393;SDS011;36308;46.312;25.288;2022-07-29T12:48:40;5.07;;;4.40;;
50393;SDS011;36308;46.312;25.288;2022-07-29T12:51:08;7.60;;;5.03;;
50393;SDS011;36308;46.312;25.288;2022-07-29T12:53:35;8.75;;;5.47;;
50393;SDS011;36308;46.312;25.288;2022-07-29T12:56:02;6.50;;;4.70;;
50393;SDS011;36308;46.312;25.288;2022-07-29T13:01:15;7.60;;;5.45;;
50393;SDS011;36308;46.312;25.288;2022-07-29T13:03:52;8.52;;;5.25;;
50393;SDS011;36308;46.312;25.288;2022-07-29T13:06:40;8.00;;;5.55;;
50393;SDS011;36308;46.312;25.288;2022-07-29T13:09:17;10.13;;;5.95;;
50393;SDS011;36308;46.312;25.288;2022-07-29T13:11:48;9.23;;;5.03;;
50393;SDS011;36308;46.312;25.288;2022-07-29T13:14:31;11.13;;;5.20;;
50393;SDS011;36308;46.312;25.288;2022-07-29T13:20:03;6.53;;;4.85;;
50393;SDS011;36308;46.312;25.288;2022-07-29T13:22:31;6.25;;;4.78;;
50393;SDS011;36308;46.312;25.288;2022-07-29T13:24:57;7.78;;;5.07;;
50393;SDS011;36308;46.312;25.288;2022-07-29T13:27:24;9.00;;;5.18;;
50393;SDS011;36308;46.312;25.288;2022-07-29T13:29:52;7.10;;;5.45;;
50393;SDS011;36308;46.312;25.288;2022-07-29T13:32:18;10.95;;;6.40;;
50393;SDS011;36308;46.312;25.288;2022-07-29T13:34:45;10.45;;;6.15;;
50393;SDS011;36308;46.312;25.288;2022-07-29T13:37:11;8.05;;;6.30;;
50393;SDS011;36308;46.312;25.288;2022-07-29T13:39:36;9.95;;;5.93;;
50393;SDS011;36308;46.312;25.288;2022-07-29T13:42:05;8.35;;;5.25;;
50393;SDS011;36308;46.312;25.288;2022-07-29T13:44:31;7.65;;;5.35;;
50393;SDS011;36308;46.312;25.288;2022-07-29T13:46:57;7.05;;;5.68;;
50393;SDS011;36308;46.312;25.288;2022-07-29T13:49:23;6.72;;;5.15;;
50393;SDS011;36308;46.312;25.288;2022-07-29T13:51:49;9.00;;;5.50;;
50393;SDS011;36308;46.312;25.288;2022-07-29T13:54:15;7.50;;;5.60;;
50393;SDS011;36308;46.312;25.288;2022-07-29T13:56:40;5.55;;;5.05;;
50393;SDS011;36308;46.312;25.288;2022-07-29T13:59:06;6.80;;;5.32;;
50393;SDS011;36308;46.312;25.288;2022-07-29T14:01:44;7.95;;;5.63;;
50393;SDS011;36308;46.312;25.288;2022-07-29T14:04:09;6.45;;;5.70;;
50393;SDS011;36308;46.312;25.288;2022-07-29T14:06:35;7.13;;;5.50;;
50393;SDS011;36308;46.312;25.288;2022-07-29T14:09:02;7.78;;;5.80;;
50393;SDS011;36308;46.312;25.288;2022-07-29T14:11:31;6.88;;;5.47;;
50393;SDS011;36308;46.312;25.288;2022-07-29T14:13:57;8.95;;;5.50;;
50393;SDS011;36308;46.312;25.288;2022-07-29T14:16:22;7.22;;;5.05;;
50393;SDS011;36308;46.312;25.288;2022-07-29T14:18:48;8.15;;;5.30;;
50393;SDS011;36308;46.312;25.288;2022-07-29T14:21:13;6.68;;;4.85;;
50393;SDS011;36308;46.312;25.288;2022-07-29T14:23:39;6.90;;;5.22;;
50393;SDS011;36308;46.312;25.288;2022-07-29T14:26:05;7.25;;;5.18;;
50393;SDS011;36308;46.312;25.288;2022-07-29T14:28:30;6.50;;;5.20;;
50393;SDS011;36308;46.312;25.288;2022-07-29T14:30:56;6.28;;;5.07;;
50393;SDS011;36308;46.312;25.288;2022-07-29T14:33:21;5.40;;;4.63;;
50393;SDS011;36308;46.312;25.288;2022-07-29T14:35:47;6.30;;;4.82;;
50393;SDS011;36308;46.312;25.288;2022-07-29T14:38:12;7.25;;;5.53;;
50393;SDS011;36308;46.312;25.288;2022-07-29T14:40:38;6.95;;;5.65;;
50393;SDS011;36308;46.312;25.288;2022-07-29T14:43:03;6.10;;;5.30;;
50393;SDS011;36308;46.312;25.288;2022-07-29T14:45:29;8.45;;;5.88;;
50393;SDS011;36308;46.312;25.288;2022-07-29T14:47:54;7.20;;;6.00;;
50393;SDS011;36308;46.312;25.288;2022-07-29T14:50:20;7.38;;;5.43;;
50393;SDS011;36308;46.312;25.288;2022-07-29T14:52:45;6.85;;;5.53;;
50393;SDS011;36308;46.312;25.288;2022-07-29T14:55:11;6.47;;;5.35;;
50393;SDS011;36308;46.312;25.288;2022-07-29T14:57:37;8.43;;;6.15;;
50393;SDS011;36308;46.312;25.288;2022-07-29T15:00:05;6.57;;;5.00;;
50393;SDS011;36308;46.312;25.288;2022-07-29T15:02:32;7.28;;;4.97;;
50393;SDS011;36308;46.312;25.288;2022-07-29T15:04:59;5.57;;;4.82;;
50393;SDS011;36308;46.312;25.288;2022-07-29T15:07:24;6.13;;;5.22;;
50393;SDS011;36308;46.312;25.288;2022-07-29T15:09:50;7.47;;;5.03;;
50393;SDS011;36308;46.312;25.288;2022-07-29T15:12:16;5.85;;;4.85;;
50393;SDS011;36308;46.312;25.288;2022-07-29T15:14:41;5.90;;;4.53;;
50393;SDS011;36308;46.312;25.288;2022-07-29T15:17:07;6.25;;;4.78;;
50393;SDS011;36308;46.312;25.288;2022-07-29T15:19:33;6.10;;;4.90;;
50393;SDS011;36308;46.312;25.288;2022-07-29T15:21:58;7.30;;;5.07;;
50393;SDS011;36308;46.312;25.288;2022-07-29T15:24:24;5.30;;;4.20;;
50393;SDS011;36308;46.312;25.288;2022-07-29T15:26:49;7.03;;;4.57;;
50393;SDS011;36308;46.312;25.288;2022-07-29T15:29:15;5.75;;;4.57;;
50393;SDS011;36308;46.312;25.288;2022-07-29T15:31:40;7.15;;;4.38;;
50393;SDS011;36308;46.312;25.288;2022-07-29T15:34:06;4.75;;;4.18;;
50393;SDS011;36308;46.312;25.288;2022-07-29T15:36:32;6.20;;;3.88;;
50393;SDS011;36308;46.312;25.288;2022-07-29T15:38:57;5.55;;;4.00;;
50393;SDS011;36308;46.312;25.288;2022-07-29T15:41:22;4.32;;;3.80;;
50393;SDS011;36308;46.312;25.288;2022-07-29T15:43:48;7.78;;;4.38;;
50393;SDS011;36308;46.312;25.288;2022-07-29T15:46:14;4.78;;;4.20;;
50393;SDS011;36308;46.312;25.288;2022-07-29T15:49:01;6.03;;;4.40;;